AirNav   Everest Fuels
 
 365 users online  

0G3 Tecumseh Municipal Airport
Tecumseh, Nebraska, USA

GOING TO TECUMSEH?


FAA INFORMATION EFFECTIVE 22 APRIL 2021

Location

FAA Identifier: 0G3
Lat/Long: 40-24-03.4000N 096-10-13.6000W
40-24.056667N 096-10.226667W
40.4009444,-96.1704444
(estimated)
Elevation: 1306.1 ft. / 398.1 m (surveyed)
Variation: 03E (2015)
From city: 2 miles NE of TECUMSEH, NE
Time zone: UTC -5 (UTC -6 during Standard Time)
Zip code: 68450

Airport Operations

Airport use: Open to the public
Activation date: 08/1974
Control tower: no
ARTCC: MINNEAPOLIS CENTER
FSS: COLUMBUS FLIGHT SERVICE STATION
NOTAMs facility: OLU (NOTAM-D service available)
Attendance: UNATNDD
Wind indicator: lighted
Segmented circle: no
Lights: ACTVT MIRL RY 15/33 - CTAF.
Beacon: white-green (lighted land airport)
Operates sunset to sunrise.

Airport Communications

CTAF: 122.9
WX AWOS-3PT at AFK (19 nm NE): 128.325 (402-873-7375)
  • APCH/DEP SVC PRVDD BY MINNEAPOLIS ARTCC ON FREQS 126.4/317.7 (MARYSVILLE RCAG).

Nearby radio navigation aids

VOR radial/distance  VOR name  Freq  Var
PWEr003/12.1PAWNEE CITY VORTAC112.4005E
BIEr070/(27.4)BEATRICE VOR110.6007E

 
NDB name  Hdg/Dist  Freq  Var  ID
NEBRASKA CITY224/18.734705EAFK .- ..-. -.-
PLATTSMOUTH195/34.632905EPMV .--. -- ...-

Airport Services

Fuel available: 100LL
FUEL AVBL 24 HR WITH CREDIT CARD.
Parking: hangars and tiedowns
Airframe service: NONE
Powerplant service: NONE
Bottled oxygen: NONE
Bulk oxygen: NONE

Runway Information

Runway 15/33

Dimensions: 3501 x 75 ft. / 1067 x 23 m
Surface: concrete, in excellent condition
Weight bearing capacity: 
Single wheel: 6.0
Runway edge lights: medium intensity
RUNWAY 15  RUNWAY 33
Latitude: 40-24.325445N40-23.787712N
Longitude: 096-10.362390W096-10.090478W
Elevation: 1305.2 ft.1301.2 ft.
Traffic pattern: leftleft
Markings: nonprecision, in good conditionnonprecision, in good condition
Touchdown point: yes, no lightsyes, no lights
Obstructions: 14 ft. trees, 600 ft. from runway, 75 ft. left of centerline, 28:1 slope to clearnone

Airport Ownership and Management from official FAA records

Ownership: Publicly-owned
Owner: TECUMSEH AIRPORT AUTHORITY
P.O. BOX 837
TECUMSEH, NE 68450-0837
Phone (402) 335-8338
PHIL JUILFS- CHAIRMAN.
Manager: MIKE WENDT
PO BOX 537
TECUMSEH, NE 68450-0537
Phone 402-335-3303

Airport Operational Statistics

Aircraft based on the field: 10
Single engine airplanes: 10
    
Aircraft operations: avg 105/week *
67% local general aviation
30% transient general aviation
3% military
* for 12-month period ending 20 June 2016

Additional Remarks

FOR CD CTC MINNEAPOLIS ARTCC AT 651-463-5588.
COURTESY CAR AVBL.

Instrument Procedures

NOTE: All procedures below are presented as PDF files. If you need a reader for these files, you should download the free Adobe Reader.

NOT FOR NAVIGATION. Please procure official charts for flight.
FAA instrument procedures published for use from 22 April 2021 at 0901Z to 20 May 2021 at 0900z.

 
IAPs - Instrument Approach Procedures
RNAV (GPS) RWY 15   download (177KB)
RNAV (GPS) RWY 33   download (184KB)
NOTE: Special Take-Off Minimums/Departure Procedures apply   download (149KB)

Other nearby airports with instrument procedures:

K01 - Farington Field Airport (17 nm E)
KAFK - Nebraska City Municipal Airport (19 nm NE)
KBIE - Beatrice Municipal Airport (27 nm W)
KFNB - Brenner Field Airport (33 nm SE)
KPMV - Plattsmouth Municipal Airport/Douglas V Duey Field (35 nm N)
 
Loc | Ops | Rwys | IFR | FBO | Links
Com | Nav | Svcs | Stats | Notes

Silverhawk Aviation, Inc.
AirBoss

 
Area around 0G3 (Tecumseh Municipal Airport)
 
Road maps at: MapQuest Bing Google
 
Aerial photo
WARNING: Photo may not be current or correct
Aerial photo of 0G3 (Tecumseh Municipal Airport)
Do you have a better or more recent aerial photo of Tecumseh Municipal Airport that you would like to share? If so, please send us your photo.

 
Sectional chart

 
Airport distance calculator
Flying to Tecumseh Municipal Airport? Find the distance to fly.

From to 0G3

Sunrise and sunset
Times for 18-May-2021
 Local
(UTC-5)
 Zulu
(UTC)
Morning civil twilight05:3510:35
Sunrise06:0711:07
Sunset20:3601:36
Evening civil twilight21:0702:07

Current date and time
Zulu (UTC)  18-May-2021 08:59:09
Local (UTC-5)  18-May-2021 03:59:09
 
METAR
KAFK 
19nm NE 
180835Z AUTO 07007KT 4SM RA OVC004 17/17 A2996 RMK AO2 T01650165
KBIE 
27nm W 
180835Z AUTO 06005KT 3SM BR OVC004 16/16 A2993 RMK AO2 T01630160
KFNB 
34nm SE 
180853Z AUTO 06005KT 3SM -RA BR OVC003 17/17 A2991 RMK AO2 RAB52 SLP123 P0000 60001 T01720167 58009
KPMV 
35nm N 
180835Z AUTO 09005KT 7SM OVC004 17/16 A2997 RMK AO2 T01680161
TAF
KLNK 
38nm NW 
180520Z 1806/1906 08008KT P6SM OVC013 FM180800 07007KT 4SM BR VCSH OVC006 TEMPO 1812/1814 3SM BR OVC005 FM181500 07007KT P6SM OVC007 FM181700 09006KT P6SM BKN013 FM182100 12008KT P6SM BKN028 FM190000 12007KT P6SM BKN040
NOTAMs
Click for the latest NOTAMs
NOTAMs are issued by the DoD/FAA and will open in a separate window not controlled by AirNav.

 

 
 

FBO, Fuel Providers, and Aircraft Ground Support

  
 Business Name 
 
 Contact 
 
 Services / Description 
 
Fuel Prices
 
Comments
  
Tecumseh Municipal Airport 402-335-3303
no information available

If you are affiliated with Tecumseh Municipal Airport and would like to show here your services, contact info, web link, logo, and more, click here
100LL
SS $4.50 
 Updated 17-May-2021
 
   1 read write
SS=Self service
Update Fuel Prices
 

Would you like to see your business listed on this page?

 If your business provides an interesting product or service to pilots, flight crews, aircraft, or users of the Tecumseh Municipal Airport, you should consider listing it here.  To start the listing process, click on the button below
 
Add a business
 

Other Pages about Tecumseh Municipal Airport

City of Tecumseh, Nebraska/Airport
 
Update a link
 
Copyright © AirNav, LLC. All rights reserved. Privacy Policy  Contact